Terminal Aerodrome Forecast
Issued by NWS

Current Version | Previous Version | Graphics & Text | Print | Product List | Glossary On
Versions: 1 2 3 4 5 6 7 8 9 10 11 12 13 14 15 16 17 18 19 20 21 22 23
119
FTUS41 KPBZ 241736
TAFMGW
TAF
KMGW 241736Z 2418/2518 14011G18KT P6SM VCSH SCT025 BKN050
     FM250000 12008G14KT P6SM -SHRA OVC050
     FM250600 11008G15KT P6SM -SHRA OVC012
     FM251200 17008KT P6SM -SHRA OVC020
     FM251700 22008KT P6SM BKN050=

USA.gov is the U.S. government's official web portal to all federal, state and local government web resources and services.